M I D A S
Marine Information and Data Acquisition System
Tripno 945 of the Zeeleeuw from 2005-04-13 06:34:00 to 2005-04-13 13:48:16
Back to CruiseResearch ActivitiesStationsMapUnderway DataData graphs

EquipmentUnitsComment
TimeDGPSUTC
LatitudeDGPSDM.mWGS84
LongitudeDGPSDM.mWGS84
HeadingGyrodeg 
SOGDGPSknotsSpeed over ground
COGDGPSdegCourse over ground
DepthEcho soundermeters200 kHz
Missing or incorrect values are displayed as -999
Navigation data collected by the RV Zeeleeuw from 2005-04-13 06:30:56 to 2005-04-13 13:59:09
Time Latitude Longitude Heading SOG COG Depth
2005-04-13 06:32:01 51°13.594 2°56.098 134.3 0.1 224 7.2
2005-04-13 06:33:01 51°13.59 2°56.104 136.9 1.1 135 7.5
2005-04-13 06:34:02 51°13.564 2°56.14 141.5 2.5 139 9.2
2005-04-13 06:35:02 51°13.551 2°56.202 90 1.9 85 8.9
2005-04-13 06:36:03 51°13.554 2°56.205 61.3 1 44 8.8
2005-04-13 06:37:03 51°13.554 2°56.197 22 0.4 224 -999
2005-04-13 06:38:01 51°13.547 2°56.189 349.8 0.4 346 -999
2005-04-13 06:39:02 51°13.546 2°56.187 320.9 2.4 319 -999
2005-04-13 06:40:03 51°13.586 2°56.089 306.4 5.9 303 -999
2005-04-13 06:41:02 51°13.644 2°55.955 308.6 5.6 305 9.2
2005-04-13 06:42:02 51°13.692 2°55.848 308.3 4.9 306 9.5
2005-04-13 06:43:01 51°13.75 2°55.72 313.6 6.9 312 9.8
2005-04-13 06:44:02 51°13.86 2°55.606 339.2 8.3 335 9.8
2005-04-13 06:45:01 51°13.992 2°55.513 341.4 9.2 337 9.8
2005-04-13 06:46:02 51°14.134 2°55.415 338.9 9.2 334 10
2005-04-13 06:47:02 51°14.263 2°55.255 317.2 10.4 313 10.2
2005-04-13 06:48:02 51°14.388 2°55.018 314.9 12.4 310 10.4
2005-04-13 06:49:02 51°14.513 2°54.72 307.1 13.8 301 10.4
2005-04-13 06:50:02 51°14.637 2°54.406 308.4 14 303 10
2005-04-13 06:51:01 51°14.763 2°54.097 308.8 14 303 9.9
2005-04-13 06:52:02 51°14.89 2°53.787 307.8 13.9 303 9.4
2005-04-13 06:53:01 51°15.004 2°53.473 299 13.7 294 9.7
2005-04-13 06:54:01 51°15.099 2°53.142 300.6 13.7 295 10.1
2005-04-13 06:55:02 51°15.195 2°52.81 300.4 13.7 295 10.6
2005-04-13 06:56:01 51°15.278 2°52.477 295.5 13.8 290 11.2
2005-04-13 06:57:01 51°15.351 2°52.13 291.3 13.9 287 11.8
2005-04-13 06:58:02 51°15.418 2°51.767 290.8 13.9 286 12.1
2005-04-13 06:59:02 51°15.413 2°51.439 265.8 10.3 264 12.4
2005-04-13 07:00:02 51°15.403 2°51.237 271.3 6.8 268 12.6
2005-04-13 07:01:02 51°15.413 2°51.105 285.4 4.4 283 12.7
2005-04-13 07:02:03 51°15.434 2°51.012 298.3 3.5 292 12.7
2005-04-13 07:03:02 51°15.456 2°50.943 300.8 2.7 297 12.6
2005-04-13 07:04:02 51°15.473 2°50.885 298.8 2.2 295 12.8
2005-04-13 07:05:02 51°15.489 2°50.836 298.7 1.9 300 12.8
2005-04-13 07:06:02 51°15.502 2°50.792 295.5 1.9 295 12.7
2005-04-13 07:07:02 51°15.513 2°50.743 283.9 2 288 12.7
2005-04-13 07:08:02 51°15.521 2°50.691 273.5 2 280 12.7
2005-04-13 07:09:01 51°15.524 2°50.64 262.7 2 272 12.8
2005-04-13 07:10:01 51°15.521 2°50.589 249.1 1.8 261 12.7
2005-04-13 07:11:02 51°15.512 2°50.544 230.1 1.7 250 12.7
2005-04-13 07:12:02 51°15.498 2°50.511 207.3 1.5 229 12.7
2005-04-13 07:13:02 51°15.482 2°50.49 184 1.1 212 12.7
2005-04-13 07:14:02 51°15.47 2°50.48 170.7 0.7 208 12.6
2005-04-13 07:15:01 51°15.462 2°50.473 166.9 0.4 206 12.6
2005-04-13 07:16:03 51°15.455 2°50.467 167.8 0.4 222 12.7
2005-04-13 07:17:02 51°15.452 2°50.458 168.9 0.4 244 12.6
2005-04-13 07:18:00 51°15.451 2°50.449 169.2 0.3 253 12.6
2005-04-13 07:19:01 51°15.451 2°50.44 168.4 0.4 271 12.7
2005-04-13 07:20:02 51°15.452 2°50.429 165.4 0.4 277 12.7
2005-04-13 07:21:02 51°15.453 2°50.419 162.5 0.4 281 12.6
2005-04-13 07:22:02 51°15.454 2°50.409 160.2 0.4 283 12.7
2005-04-13 07:23:02 51°15.455 2°50.399 157.8 0.4 277 12.6
2005-04-13 07:24:02 51°15.456 2°50.388 156.6 0.5 278 12.5
2005-04-13 07:25:03 51°15.457 2°50.376 156.7 0.4 274 12.5
2005-04-13 07:26:01 51°15.458 2°50.364 156.7 0.5 278 12.5
2005-04-13 07:27:01 51°15.459 2°50.352 157.1 0.5 276 12.6
2005-04-13 07:28:02 51°15.459 2°50.339 156.7 0.4 270 12.6
2005-04-13 07:29:02 51°15.459 2°50.326 156.2 0.5 276 12.5
2005-04-13 07:30:03 51°15.46 2°50.313 155.9 0.5 274 12.5
2005-04-13 07:31:01 51°15.461 2°50.301 154.5 0.5 275 12.5
2005-04-13 07:32:01 51°15.462 2°50.287 152.7 0.5 278 12.4
2005-04-13 07:33:02 51°15.463 2°50.273 151.4 0.5 272 12.6
2005-04-13 07:34:02 51°15.463 2°50.259 152.5 0.5 270 12.5
2005-04-13 07:35:01 51°15.463 2°50.247 153.1 0.5 263 12.4
2005-04-13 07:36:00 51°15.461 2°50.234 153.5 0.5 254 12.4
2005-04-13 07:37:02 51°15.458 2°50.221 154.6 0.4 252 12.4
2005-04-13 07:38:01 51°15.451 2°50.211 156.7 1.5 175 12.4
2005-04-13 07:39:02 51°15.401 2°50.216 168.7 3.6 178 12.3
2005-04-13 07:40:02 51°15.334 2°50.178 203.6 4.7 211 12.2
2005-04-13 07:41:01 51°15.279 2°50.093 225.7 4.8 230 12.3
2005-04-13 07:42:02 51°15.234 2°49.986 237.9 4.5 241 12.2
2005-04-13 07:43:02 51°15.214 2°49.883 258.5 3.9 258 12.3
2005-04-13 07:44:01 51°15.211 2°49.787 274.6 3.6 274 12.4
2005-04-13 07:45:02 51°15.225 2°49.694 299 3.5 286 12.2
2005-04-13 07:46:01 51°15.256 2°49.627 330.3 3.1 316 12.3
2005-04-13 07:47:02 51°15.298 2°49.585 355.6 2.9 338 12.3
2005-04-13 07:48:01 51°15.339 2°49.575 25.8 2.3 4 12.3
2005-04-13 07:49:02 51°15.371 2°49.599 57.8 2 43 12.3
2005-04-13 07:50:01 51°15.383 2°49.642 90 1.9 84 12.4
2005-04-13 07:51:02 51°15.378 2°49.677 108.1 1.2 114 12.3
2005-04-13 07:52:01 51°15.368 2°49.695 120.6 0.8 142 12.3
2005-04-13 07:53:02 51°15.358 2°49.702 126.2 0.6 162 12.3
2005-04-13 07:54:01 51°15.349 2°49.703 131 0.5 189 12.3
2005-04-13 07:55:00 51°15.342 2°49.699 134.7 0.5 206 12.3
2005-04-13 07:56:02 51°15.335 2°49.69 138.5 0.6 223 12.2
2005-04-13 07:57:01 51°15.329 2°49.677 144.3 0.7 235 12.2
2005-04-13 07:58:02 51°15.323 2°49.66 150.8 0.7 244 12.2
2005-04-13 07:59:02 51°15.317 2°49.642 153.1 0.8 245 12.1
2005-04-13 08:00:02 51°15.312 2°49.623 154.2 0.8 244 12.1
2005-04-13 08:01:01 51°15.307 2°49.604 155.8 0.8 244 12.2
2005-04-13 08:02:02 51°15.302 2°49.584 156.6 0.9 248 12.1
2005-04-13 08:03:02 51°15.297 2°49.563 157.7 0.8 248 12.2
2005-04-13 08:04:02 51°15.292 2°49.542 157.8 0.9 250 12.1
2005-04-13 08:05:02 51°15.287 2°49.519 158.5 0.9 250 12.1
2005-04-13 08:06:02 51°15.282 2°49.496 159.5 0.9 248 12.1
2005-04-13 08:07:02 51°15.276 2°49.472 162.3 0.9 249 12.1
2005-04-13 08:08:02 51°15.27 2°49.448 165.9 1 252 12.1
2005-04-13 08:09:03 51°15.266 2°49.424 169.4 1 252 12.1
2005-04-13 08:10:02 51°15.261 2°49.399 170.9 0.9 254 12.1
2005-04-13 08:11:02 51°15.256 2°49.374 169.7 0.9 254 12.1
2005-04-13 08:12:02 51°15.251 2°49.352 167.9 0.9 243 12.1
2005-04-13 08:13:01 51°15.207 2°49.329 187.8 3.4 204 12
2005-04-13 08:14:02 51°15.153 2°49.272 208.6 4.1 219 12.1
2005-04-13 08:15:02 51°15.101 2°49.193 218.6 4.4 226 11.9
2005-04-13 08:16:02 51°15.05 2°49.105 221.3 4.5 228 11.9
2005-04-13 08:17:02 51°15.009 2°49.031 215.9 3.4 227 11.9
2005-04-13 08:18:03 51°14.974 2°48.976 205.4 2.7 223 11.8
2005-04-13 08:19:02 51°14.945 2°48.935 197.5 2.2 221 11.8
2005-04-13 08:20:02 51°14.92 2°48.898 193.7 1.9 222 11.7
2005-04-13 08:21:01 51°14.899 2°48.867 189.2 1.7 225 11.7
2005-04-13 08:22:02 51°14.88 2°48.837 187.1 1.5 226 11.6
2005-04-13 08:23:02 51°14.864 2°48.808 185 1.4 229 11.6
2005-04-13 08:24:03 51°14.848 2°48.779 182.7 1.3 231 11.6
2005-04-13 08:25:01 51°14.836 2°48.752 179.2 1.3 236 11.5
2005-04-13 08:26:01 51°14.818 2°48.725 179.7 2.3 206 11.5
2005-04-13 08:27:02 51°14.769 2°48.668 217.7 4.1 226 11.4
2005-04-13 08:28:01 51°14.725 2°48.582 230.3 4.4 235 11.2
2005-04-13 08:29:02 51°14.686 2°48.475 241.2 4.7 243 11.2
2005-04-13 08:30:02 51°14.66 2°48.358 257.3 4.7 255 11
2005-04-13 08:31:01 51°14.648 2°48.239 268.8 4.6 263 10.8
2005-04-13 08:32:02 51°14.643 2°48.12 275.6 4.2 269 10.5
2005-04-13 08:33:02 51°14.646 2°48.014 283.8 3.9 275 10.4
2005-04-13 08:34:02 51°14.655 2°47.916 291.5 3.7 280 10.2
2005-04-13 08:35:01 51°14.667 2°47.824 295.8 3.7 283 10.2
2005-04-13 08:36:02 51°14.682 2°47.727 297.9 3.6 285 10.5
2005-04-13 08:37:02 51°14.697 2°47.637 296.8 3.5 284 10.9
2005-04-13 08:38:02 51°14.709 2°47.549 295.1 3.4 282 11.2
2005-04-13 08:39:03 51°14.721 2°47.462 294.6 3.3 284 11.5
2005-04-13 08:40:03 51°14.732 2°47.376 293.8 3.3 281 11.8
2005-04-13 08:41:01 51°14.742 2°47.292 292.9 3.4 281 11.8
2005-04-13 08:42:02 51°14.754 2°47.204 292.3 3.4 281 11.9
2005-04-13 08:43:03 51°14.764 2°47.116 291.7 3.4 281 11.9
2005-04-13 08:44:02 51°14.775 2°47.029 291.4 3.4 281 11.6
2005-04-13 08:45:02 51°14.785 2°46.942 291 3.3 280 11
2005-04-13 08:46:02 51°14.794 2°46.854 290.5 3.3 281 10.3
2005-04-13 08:47:02 51°14.805 2°46.769 293.3 3.3 282 9.6
2005-04-13 08:48:02 51°14.818 2°46.685 295.8 3.2 284 8.7
2005-04-13 08:49:03 51°14.832 2°46.601 297.5 3.2 286 8.4
2005-04-13 08:50:01 51°14.846 2°46.52 296.7 3.3 285 8.2
2005-04-13 08:51:02 51°14.86 2°46.437 296.1 3.2 286 8.1
2005-04-13 08:52:01 51°14.874 2°46.355 295.8 3.2 285 8.3
2005-04-13 08:53:02 51°14.888 2°46.272 296 3.2 285 8.5
2005-04-13 08:54:03 51°14.903 2°46.19 296.7 3.1 287 8.9
2005-04-13 08:55:03 51°14.918 2°46.109 297.2 3.1 286 9.5
2005-04-13 08:56:02 51°14.934 2°46.03 297.4 3.2 287 10
2005-04-13 08:57:02 51°14.949 2°45.95 297.1 3.2 287 10.5
2005-04-13 08:58:02 51°14.963 2°45.87 296.8 3.2 286 11
2005-04-13 08:59:03 51°14.978 2°45.789 297.1 3.1 287 11.5
2005-04-13 09:00:02 51°14.992 2°45.709 296.4 3.2 285 12.2
2005-04-13 09:01:02 51°15.006 2°45.629 295.4 3.1 285 12.7
2005-04-13 09:02:01 51°15.018 2°45.549 294.7 3.1 284 13
2005-04-13 09:03:01 51°15.03 2°45.469 295.3 3.2 284 13.4
2005-04-13 09:04:02 51°15.044 2°45.386 295.2 3.2 284 13.8
2005-04-13 09:05:01 51°15.056 2°45.307 295.3 3.2 283 14.1
2005-04-13 09:06:02 51°15.07 2°45.222 297.1 3.2 286 14.6
2005-04-13 09:07:02 51°15.086 2°45.142 300.3 3.2 287 15
2005-04-13 09:08:02 51°15.101 2°45.061 299.2 3.2 286 15.2
2005-04-13 09:09:02 51°15.116 2°44.979 299 3.2 287 15.6
2005-04-13 09:10:02 51°15.132 2°44.897 301.2 3.2 287 15.9
2005-04-13 09:11:03 51°15.149 2°44.815 305.1 3.2 290 16.2
2005-04-13 09:12:03 51°15.168 2°44.735 309 3.2 292 16.7
2005-04-13 09:13:01 51°15.189 2°44.661 314.8 3.1 296 17
2005-04-13 09:14:01 51°15.214 2°44.59 321.4 3.1 300 17
2005-04-13 09:15:02 51°15.239 2°44.518 321.6 3.1 298 17
2005-04-13 09:16:02 51°15.263 2°44.447 322.7 3 298 16.4
2005-04-13 09:17:01 51°15.286 2°44.38 327.3 2.9 302 15.5
2005-04-13 09:18:02 51°15.313 2°44.316 332.7 2.8 305 14.8
2005-04-13 09:19:02 51°15.341 2°44.259 337.9 2.7 309 13.8
2005-04-13 09:20:02 51°15.369 2°44.205 338.4 2.7 309 12.9
2005-04-13 09:21:01 51°15.396 2°44.151 338.8 2.6 311 12.2
2005-04-13 09:22:02 51°15.425 2°44.096 336.5 2.6 310 12
2005-04-13 09:23:02 51°15.451 2°44.04 332.5 2.7 305 11.7
2005-04-13 09:24:00 51°15.476 2°43.981 327.3 2.7 302 11.7
2005-04-13 09:25:03 51°15.499 2°43.915 323.7 2.8 298 11.6
2005-04-13 09:26:03 51°15.52 2°43.849 320.8 2.8 296 11.6
2005-04-13 09:27:02 51°15.54 2°43.783 320.7 2.8 295 11.8
2005-04-13 09:28:01 51°15.559 2°43.718 318.1 2.8 294 12
2005-04-13 09:29:02 51°15.578 2°43.647 316.7 2.8 291 11.7
2005-04-13 09:30:02 51°15.597 2°43.584 330.3 2.6 302 11.1
2005-04-13 09:31:01 51°15.621 2°43.538 350.6 1.9 314 10.3
2005-04-13 09:32:03 51°15.64 2°43.506 357.8 1.4 311 10.2
2005-04-13 09:33:03 51°15.652 2°43.478 358.3 1.2 304 10.6
2005-04-13 09:34:03 51°15.66 2°43.451 353.3 1.1 293 10.3
2005-04-13 09:35:02 51°15.669 2°43.42 342 1.5 295 10.6
2005-04-13 09:36:02 51°15.679 2°43.377 324.4 1.9 287 10.6
2005-04-13 09:37:02 51°15.685 2°43.323 307.9 2.2 276 10.7
2005-04-13 09:38:02 51°15.686 2°43.26 290.1 2.5 266 10.4
2005-04-13 09:39:02 51°15.676 2°43.193 270 2.6 253 10.5
2005-04-13 09:40:02 51°15.657 2°43.128 252.5 2.7 242 10.7
2005-04-13 09:41:01 51°15.632 2°43.071 232.4 2.6 230 10.3
2005-04-13 09:42:02 51°15.601 2°43.022 217.9 2.6 221 10.5
2005-04-13 09:43:02 51°15.567 2°42.976 213.4 2.7 218 11
2005-04-13 09:44:02 51°15.529 2°42.934 206.8 2.8 213 10.1
2005-04-13 09:45:01 51°15.488 2°42.895 202.5 2.9 210 10.4
2005-04-13 09:46:02 51°15.444 2°42.853 204.1 3.1 210 10.5
2005-04-13 09:47:03 51°15.396 2°42.805 208.9 3.4 214 11.3
2005-04-13 09:48:02 51°15.351 2°42.753 211.9 3.4 216 11.6
2005-04-13 09:49:03 51°15.304 2°42.7 207.1 3.3 214 12
2005-04-13 09:50:02 51°15.258 2°42.659 196.4 3.2 209 12.3
2005-04-13 09:51:03 51°15.21 2°42.622 193 3.2 206 12.8
2005-04-13 09:52:01 51°15.164 2°42.588 187.1 3.1 202 12.8
2005-04-13 09:53:02 51°15.115 2°42.561 181.3 3.2 198 13.1
2005-04-13 09:54:01 51°15.067 2°42.534 182.6 3.3 199 12
2005-04-13 09:55:03 51°15.015 2°42.503 185.3 3.3 203 12.4
2005-04-13 09:56:02 51°14.966 2°42.47 186.3 3.2 203 12.6
2005-04-13 09:57:03 51°14.917 2°42.436 185.1 3.2 204 12.5
2005-04-13 09:58:02 51°14.869 2°42.402 184.7 3.2 204 12.4
2005-04-13 09:59:02 51°14.821 2°42.369 183.6 3.2 203 12.3
2005-04-13 10:00:03 51°14.771 2°42.335 184.4 3.2 204 12.7
2005-04-13 10:01:03 51°14.722 2°42.298 188.5 3.3 208 13.1
2005-04-13 10:02:03 51°14.674 2°42.254 195.9 3.4 212 11.7
2005-04-13 10:03:02 51°14.628 2°42.203 198.6 3.5 216 13.4
2005-04-13 10:04:01 51°14.583 2°42.153 198.1 3.3 214 13.9
2005-04-13 10:05:03 51°14.535 2°42.1 195.2 3.3 212 14.3
2005-04-13 10:06:01 51°14.489 2°42.055 194.4 3.4 212 14.5
2005-04-13 10:07:02 51°14.443 2°42.006 196.6 3.3 213 15.2
2005-04-13 10:08:03 51°14.397 2°41.956 197.8 3.3 214 15.3
2005-04-13 10:09:03 51°14.352 2°41.908 198.7 3.3 215 15.7
2005-04-13 10:10:02 51°14.309 2°41.859 195.9 3.2 213 15.8
2005-04-13 10:11:03 51°14.264 2°41.817 191.3 3.1 209 15.7
2005-04-13 10:12:03 51°14.22 2°41.774 195.2 3.1 213 16
2005-04-13 10:13:03 51°14.176 2°41.727 196.7 3.2 214 15.9
2005-04-13 10:14:03 51°14.132 2°41.681 196.7 3.2 213 16.1
2005-04-13 10:15:03 51°14.09 2°41.635 195.1 3 213 16.1
2005-04-13 10:16:01 51°14.05 2°41.595 192.8 2.9 212 16.3
2005-04-13 10:17:02 51°14.009 2°41.552 195.6 2.9 215 16.3
2005-04-13 10:18:03 51°13.969 2°41.508 200 2.9 216 16.3
2005-04-13 10:19:02 51°13.931 2°41.462 201 2.9 216 16.3
2005-04-13 10:20:01 51°13.892 2°41.416 201.9 2.9 218 16
2005-04-13 10:21:03 51°13.852 2°41.367 201 3 218 15.8
2005-04-13 10:22:01 51°13.813 2°41.323 199.5 3 215 15.7
2005-04-13 10:23:01 51°13.773 2°41.276 200.4 3 216 15.7
2005-04-13 10:24:02 51°13.733 2°41.228 201.3 3 217 15.8
2005-04-13 10:25:03 51°13.692 2°41.179 200.5 3 215 15.5
2005-04-13 10:26:02 51°13.652 2°41.132 199.9 3.1 216 15.3
2005-04-13 10:27:01 51°13.611 2°41.085 200.9 3.1 217 15
2005-04-13 10:28:02 51°13.569 2°41.037 200.1 3.1 215 14.9
2005-04-13 10:29:02 51°13.528 2°40.992 198.5 2.9 214 14.6
2005-04-13 10:30:03 51°13.486 2°40.949 199.3 3 214 14.4
2005-04-13 10:31:03 51°13.445 2°40.903 202.2 3 215 14.3
2005-04-13 10:32:03 51°13.405 2°40.856 202.7 3 216 14.1
2005-04-13 10:33:03 51°13.364 2°40.809 200.5 3.1 215 13.5
2005-04-13 10:34:03 51°13.322 2°40.763 199.9 3 215 13.3
2005-04-13 10:35:03 51°13.28 2°40.718 199.5 3 214 13.7
2005-04-13 10:36:01 51°13.239 2°40.674 199.2 3.1 213 13.2
2005-04-13 10:37:03 51°13.194 2°40.627 199.9 3.1 213 13.3
2005-04-13 10:38:01 51°13.152 2°40.583 200.2 3.2 214 13.1
2005-04-13 10:39:02 51°13.107 2°40.535 200.1 3.1 213 12.7
2005-04-13 10:40:01 51°13.064 2°40.488 199.8 3.2 213 12.9
2005-04-13 10:41:02 51°13.019 2°40.442 200.6 3.2 214 12.4
2005-04-13 10:42:03 51°12.975 2°40.396 199.7 3.2 213 12.7
2005-04-13 10:43:03 51°12.93 2°40.35 200 3.2 213 12.8
2005-04-13 10:44:03 51°12.886 2°40.303 200.6 3.2 214 12.2
2005-04-13 10:45:01 51°12.843 2°40.259 199.9 3.2 212 12.5
2005-04-13 10:46:01 51°12.8 2°40.214 199.8 3.1 213 12.5
2005-04-13 10:47:02 51°12.756 2°40.17 198.8 3.1 211 12
2005-04-13 10:47:57 51°12.716 2°40.131 198.8 3.1 211 12
2005-04-13 10:48:27 51°12.694 2°40.109 199 3.1 210 11.9
2005-04-13 10:49:12 51°12.661 2°40.078 200.3 3.1 210 12.1
2005-04-13 10:50:11 51°12.619 2°40.037 202.2 3 212 12.1
2005-04-13 10:51:13 51°12.579 2°39.993 206.8 2.6 216 12
2005-04-13 10:52:13 51°12.543 2°39.951 209.4 2.7 218 11.8
2005-04-13 10:53:12 51°12.507 2°39.905 211 2.8 218 11
2005-04-13 10:54:13 51°12.473 2°39.859 211 2.6 220 11.4
2005-04-13 10:55:12 51°12.445 2°39.821 206.8 2.1 221 11.5
2005-04-13 10:56:13 51°12.421 2°39.789 201.6 1.7 220 11.7
2005-04-13 10:57:13 51°12.349 2°39.702 221.1 8.4 220 11.5
2005-04-13 10:58:12 51°12.222 2°39.441 234.6 14.2 233 11
2005-04-13 10:59:12 51°12.074 2°39.133 234.5 14.7 233 11
2005-04-13 11:00:11 51°11.927 2°38.832 234 14.5 232 11.1
2005-04-13 11:01:12 51°11.778 2°38.522 235.2 14.5 233 10.8
2005-04-13 11:02:13 51°11.628 2°38.216 235.2 14.5 233 10.9
2005-04-13 11:03:12 51°11.482 2°37.917 235.2 14.6 232 11.1
2005-04-13 11:04:12 51°11.331 2°37.614 235.2 14.4 232 11.4
2005-04-13 11:05:12 51°11.184 2°37.315 235.1 14.5 232 11.6
2005-04-13 11:06:11 51°11.035 2°37.019 235.4 14.4 231 11.6
2005-04-13 11:07:11 51°10.834 2°36.825 202 14.3 202 10.2
2005-04-13 11:08:12 51°10.604 2°36.714 198.3 14.2 198 8.6
2005-04-13 11:09:11 51°10.386 2°36.599 200.9 14.4 199 9.9
2005-04-13 11:10:11 51°10.155 2°36.483 199.2 14.2 198 16.9
2005-04-13 11:11:11 51°9.928 2°36.395 193 14 193 17.2
2005-04-13 11:12:13 51°9.694 2°36.302 193.5 14.2 195 16.7
2005-04-13 11:13:12 51°9.466 2°36.241 183.1 14 185 15.9
2005-04-13 11:14:12 51°9.31 2°36.243 161.5 6.2 167 15.3
2005-04-13 11:15:11 51°9.26 2°36.242 182.3 2.4 196 15.4
2005-04-13 11:16:11 51°9.228 2°36.224 181.9 1.8 201 15.4
2005-04-13 11:17:12 51°9.202 2°36.207 179.2 1.9 197 15.2
2005-04-13 11:18:11 51°9.133 2°36.187 188.7 4.8 194 14.7
2005-04-13 11:19:11 51°9.069 2°36.124 223.7 4.5 226 14.1
2005-04-13 11:20:11 51°9.033 2°36.035 247.5 3.6 247 13.9
2005-04-13 11:21:12 51°9.019 2°35.953 264.1 2.9 259 14.1
2005-04-13 11:22:12 51°9.011 2°35.883 263.8 2.6 260 14.4
2005-04-13 11:23:12 51°9.001 2°35.81 262.5 3.2 258 14.7
2005-04-13 11:24:13 51°8.99 2°35.721 264.2 3.5 259 15
2005-04-13 11:25:13 51°8.979 2°35.633 263.6 3.4 259 15.3
2005-04-13 11:26:12 51°8.967 2°35.548 262.2 3.3 258 15.7
2005-04-13 11:27:11 51°8.955 2°35.465 261.2 3.2 256 15.8
2005-04-13 11:28:12 51°8.941 2°35.38 258.5 3.3 254 15.8
2005-04-13 11:29:11 51°8.927 2°35.298 259.3 3.3 255 15.9
2005-04-13 11:30:12 51°8.913 2°35.214 261.6 3.2 256 16
2005-04-13 11:31:12 51°8.901 2°35.134 263 3.1 257 16
2005-04-13 11:32:11 51°8.891 2°35.055 267 3.1 260 16.1
2005-04-13 11:33:13 51°8.883 2°34.973 269.2 3 262 16.1
2005-04-13 11:34:12 51°8.877 2°34.895 269.7 3 263 16.3
2005-04-13 11:35:12 51°8.871 2°34.819 271.4 2.9 263 16.4
2005-04-13 11:36:12 51°8.867 2°34.744 272.5 2.9 266 16.3
2005-04-13 11:37:12 51°8.862 2°34.669 272.6 2.8 265 16.5
2005-04-13 11:38:12 51°8.857 2°34.594 270.7 2.9 264 16.5
2005-04-13 11:39:12 51°8.852 2°34.518 269.8 2.9 262 16.9
2005-04-13 11:40:12 51°8.845 2°34.442 269 2.9 262 16.7
2005-04-13 11:41:12 51°8.838 2°34.367 268.9 2.9 262 16.4
2005-04-13 11:42:13 51°8.83 2°34.292 266.8 2.9 260 16.3
2005-04-13 11:43:12 51°8.822 2°34.218 264.6 2.8 259 16.2
2005-04-13 11:44:12 51°8.812 2°34.147 261.1 2.8 256 16
2005-04-13 11:45:11 51°8.801 2°34.079 259.2 2.7 256 16.5
2005-04-13 11:46:12 51°8.789 2°34.01 258 2.6 255 16.2
2005-04-13 11:47:11 51°8.777 2°33.945 255.5 2.6 252 15.8
2005-04-13 11:48:12 51°8.763 2°33.88 251.8 2.6 249 15.7
2005-04-13 11:49:12 51°8.745 2°33.818 246.1 2.6 244 15.9
2005-04-13 11:50:11 51°8.728 2°33.759 255.1 2.4 251 16.1
2005-04-13 11:51:12 51°8.723 2°33.693 278.4 2.5 269 16.2
2005-04-13 11:52:12 51°8.727 2°33.633 286.5 2.1 278 16.5
2005-04-13 11:53:12 51°8.731 2°33.589 287.2 1.5 277 16.2
2005-04-13 11:54:12 51°8.739 2°33.54 286.9 3.4 283 16.1
2005-04-13 11:55:13 51°8.708 2°33.397 235.8 6.6 242 16.9
2005-04-13 11:56:11 51°8.578 2°33.293 196.2 10.7 196 16.1
2005-04-13 11:57:12 51°8.393 2°33.203 201.7 12 202 16.1
2005-04-13 11:58:13 51°8.255 2°33.155 177.7 5.8 180 16.7
2005-04-13 11:59:11 51°8.187 2°33.171 167.3 3.4 172 16.7
2005-04-13 12:00:11 51°8.143 2°33.176 174.1 2.2 179 16.3
2005-04-13 12:01:12 51°8.113 2°33.176 176.4 1.5 183 16
2005-04-13 12:02:12 51°8.093 2°33.175 176.9 1.1 182 15.6
2005-04-13 12:03:12 51°8.056 2°33.17 188.9 3.6 191 15
2005-04-13 12:04:11 51°8.009 2°33.1 254.2 4.2 246 14.3
2005-04-13 12:05:12 51°8.031 2°32.993 319.3 4.6 312 15.4
2005-04-13 12:06:12 51°8.104 2°32.958 6.5 4.7 -999 16.6
2005-04-13 12:07:13 51°8.173 2°32.988 29.5 4.1 25 16.8
2005-04-13 12:08:11 51°8.228 2°33.043 39.1 4 35 16.8
2005-04-13 12:09:11 51°8.278 2°33.108 44.9 3.5 43 17.1
2005-04-13 12:10:12 51°8.317 2°33.166 44.7 3.1 42 17
2005-04-13 12:11:12 51°8.355 2°33.221 47 3.1 43 16.7
2005-04-13 12:12:12 51°8.383 2°33.289 66 3.1 64 16.5
2005-04-13 12:13:13 51°8.402 2°33.367 71.8 3.2 70 17
2005-04-13 12:14:12 51°8.415 2°33.449 77.7 3.2 77 17
2005-04-13 12:15:13 51°8.427 2°33.533 76.5 3.2 76 17.5
2005-04-13 12:16:12 51°8.442 2°33.614 73.9 3.2 73 17
2005-04-13 12:17:12 51°8.459 2°33.695 72.3 3.2 71 17.3
2005-04-13 12:18:12 51°8.477 2°33.775 69.6 3.2 69 17.4
2005-04-13 12:19:12 51°8.5 2°33.854 64.5 3.2 64 17.4
2005-04-13 12:20:11 51°8.527 2°33.926 58 3.3 56 17.4
2005-04-13 12:21:13 51°8.559 2°33.998 58.1 3.2 56 17.5
2005-04-13 12:22:13 51°8.586 2°34.068 61.4 3.1 58 17.3
2005-04-13 12:23:12 51°8.611 2°34.139 63.1 3.1 61 17.5
2005-04-13 12:24:11 51°8.636 2°34.209 62.9 3.1 61 17.6
2005-04-13 12:25:12 51°8.661 2°34.283 62.7 3.1 60 17.5
2005-04-13 12:26:13 51°8.688 2°34.356 62.3 3.1 60 17.7
2005-04-13 12:27:11 51°8.714 2°34.426 63.3 3.2 60 17.6
2005-04-13 12:28:13 51°8.74 2°34.501 63.2 3.2 61 17.8
2005-04-13 12:29:11 51°8.765 2°34.572 63.4 3.2 60 17.7
2005-04-13 12:30:13 51°8.792 2°34.647 63 3.2 61 17.6
2005-04-13 12:31:12 51°8.818 2°34.717 61.6 3.2 58 17.7
2005-04-13 12:32:11 51°8.846 2°34.788 61.3 3.2 57 17.4
2005-04-13 12:33:11 51°8.873 2°34.859 61.5 3.1 60 17.4
2005-04-13 12:34:12 51°8.901 2°34.931 62.3 3.2 59 17.3
2005-04-13 12:35:12 51°8.928 2°35.006 63.5 3.2 61 17.2
2005-04-13 12:36:13 51°8.955 2°35.082 62.4 3.2 61 17.4
2005-04-13 12:37:13 51°8.982 2°35.157 62.9 3.3 60 17.4
2005-04-13 12:38:13 51°9.008 2°35.233 64.1 3.3 62 17.3
2005-04-13 12:39:12 51°9.033 2°35.31 68.2 3.4 67 17.4
2005-04-13 12:40:12 51°9.053 2°35.395 75 3.4 73 17.4
2005-04-13 12:41:12 51°9.067 2°35.482 81 3.4 77 17.2
2005-04-13 12:42:13 51°9.077 2°35.572 88.3 3.5 83 17.2
2005-04-13 12:43:13 51°9.082 2°35.669 93.9 3.5 86 17.2
2005-04-13 12:44:11 51°9.079 2°35.745 108.8 2.7 95 17.2
2005-04-13 12:45:13 51°9.073 2°35.805 118.5 2.1 100 17.2
2005-04-13 12:46:12 51°9.068 2°35.852 125.9 1.7 101 17
2005-04-13 12:47:12 51°9.063 2°35.891 134.8 1.4 98 16.7
2005-04-13 12:48:13 51°9.061 2°35.926 141.1 1.2 95 16.6
2005-04-13 12:49:12 51°9.061 2°35.956 146 1.2 84 16.4
2005-04-13 12:50:12 51°9.063 2°35.985 149.3 1.1 85 16.4
2005-04-13 12:51:12 51°9.065 2°36.014 153.4 1.1 80 16.3
2005-04-13 12:52:13 51°9.057 2°36.055 150 2.7 127 16
2005-04-13 12:53:11 51°9.027 2°36.228 89.4 9.1 82 14.2
2005-04-13 12:54:12 51°9.115 2°36.51 62.9 13.6 60 13.9
2005-04-13 12:55:13 51°9.23 2°36.835 64 14.1 61 14
2005-04-13 12:56:13 51°9.343 2°37.162 64.2 14.1 61 14.1
2005-04-13 12:57:13 51°9.462 2°37.482 66.7 14.1 64 14.2
2005-04-13 12:58:13 51°9.554 2°37.827 71.1 14.1 67 14
2005-04-13 12:59:12 51°9.647 2°38.168 70.5 14.2 67 13.9
2005-04-13 13:00:13 51°9.743 2°38.519 70.7 14.3 67 13.7
2005-04-13 13:01:13 51°9.839 2°38.867 70 14.3 66 13.7
2005-04-13 13:02:13 51°9.937 2°39.213 70.4 14.4 66 13.6
2005-04-13 13:03:13 51°10.034 2°39.562 70.1 14.5 66 13.4
2005-04-13 13:04:13 51°10.131 2°39.913 70.4 14.5 66 13.5
2005-04-13 13:05:13 51°10.227 2°40.264 71.2 14.4 67 13.5
2005-04-13 13:06:11 51°10.328 2°40.597 67.4 14.3 63 13.5
2005-04-13 13:07:11 51°10.437 2°40.93 67.5 14.2 63 13.7
2005-04-13 13:08:13 51°10.547 2°41.27 67.4 14.2 62 13.8
2005-04-13 13:09:13 51°10.656 2°41.6 67.3 14.2 62 13.8
2005-04-13 13:10:13 51°10.752 2°41.942 72.6 14.2 68 13.9
2005-04-13 13:11:12 51°10.84 2°42.285 72.6 14.1 68 14
2005-04-13 13:12:12 51°10.93 2°42.631 72.6 14.3 67 14.1
2005-04-13 13:13:13 51°11.015 2°42.986 75 14.2 70 14.2
2005-04-13 13:14:13 51°11.098 2°43.338 74.6 14.2 69 14.1
2005-04-13 13:15:13 51°11.181 2°43.691 75 14.2 70 14.3
2005-04-13 13:16:13 51°11.267 2°44.04 73.2 14.1 68 14.3
2005-04-13 13:17:11 51°11.351 2°44.38 73.3 14.1 68 14.3
2005-04-13 13:18:13 51°11.44 2°44.737 73.2 14.2 68 14.3
2005-04-13 13:19:13 51°11.529 2°45.087 73.5 14.3 69 14.4
2005-04-13 13:20:13 51°11.617 2°45.44 72.9 14.3 69 14.5
2005-04-13 13:21:13 51°11.704 2°45.794 73.3 14.4 68 14.6
2005-04-13 13:22:13 51°11.792 2°46.149 73.3 14.4 68 14.6
2005-04-13 13:23:13 51°11.88 2°46.504 73.5 14.4 68 14.6
2005-04-13 13:24:13 51°11.969 2°46.861 74 14.5 69 14.5
2005-04-13 13:25:13 51°12.062 2°47.215 71.4 14.5 66 14.5
2005-04-13 13:26:12 51°12.162 2°47.557 69.2 14.5 64 14.4
2005-04-13 13:27:13 51°12.266 2°47.91 69.5 14.4 65 14.4
2005-04-13 13:28:12 51°12.365 2°48.251 71.1 14.6 66 14.2
2005-04-13 13:29:13 51°12.47 2°48.61 70 14.5 65 13.9
2005-04-13 13:30:13 51°12.572 2°48.961 70.2 14.6 65 13.9
2005-04-13 13:31:13 51°12.675 2°49.314 69.8 14.6 64 13.5
2005-04-13 13:32:12 51°12.777 2°49.656 67 14.6 60 13.5
2005-04-13 13:33:12 51°12.912 2°49.982 61.6 14.8 57 13.3
2005-04-13 13:34:13 51°13.046 2°50.317 62.3 14.6 58 13.3
2005-04-13 13:35:13 51°13.176 2°50.641 62.2 14.6 58 13.2
2005-04-13 13:36:13 51°13.309 2°50.97 61.4 14.7 57 13.2
2005-04-13 13:37:13 51°13.439 2°51.297 61.7 14.7 58 13.1
2005-04-13 13:38:13 51°13.569 2°51.632 62 14.7 58 13.1
2005-04-13 13:39:13 51°13.7 2°51.965 62.4 14.8 59 12.8
2005-04-13 13:40:13 51°13.828 2°52.298 63.1 14.9 58 12.8
2005-04-13 13:41:13 51°13.962 2°52.636 61.9 15 58 12.8
2005-04-13 13:42:13 51°14.092 2°52.97 62.8 14.9 60 12.6
2005-04-13 13:43:12 51°14.215 2°53.312 64.7 14.9 61 12.1
2005-04-13 13:44:13 51°14.332 2°53.667 66.2 15.1 62 11.9
2005-04-13 13:45:13 51°14.423 2°54.036 78.7 14.6 76 12
2005-04-13 13:46:13 51°14.446 2°54.4 96.7 13.5 90 12.3
2005-04-13 13:47:13 51°14.429 2°54.752 106.8 13 101 12.7
2005-04-13 13:48:13 51°14.36 2°55.058 125.5 11.6 118 12.6
2005-04-13 13:49:12 51°14.252 2°55.265 135 9.3 132 12.7
2005-04-13 13:50:13 51°14.133 2°55.401 155.5 8.4 152 12.1
2005-04-13 13:51:13 51°14.016 2°55.489 157.8 7.7 156 11.4
2005-04-13 13:52:13 51°13.901 2°55.578 156.7 7.7 154 12.1
2005-04-13 13:53:13 51°13.804 2°55.659 149.6 6.1 145 12.3
2005-04-13 13:54:12 51°13.739 2°55.769 132 5.5 129 12.6
2005-04-13 13:55:13 51°13.686 2°55.876 134.2 5.2 131 11.1
2005-04-13 13:56:12 51°13.64 2°55.962 134.4 3.9 130 11.5
2005-04-13 13:57:12 51°13.609 2°56.044 116.8 3.3 114 11.5
2005-04-13 13:58:14 51°13.595 2°56.101 116 1.2 110 10.5